Time;durP1;ratioP1;P1;durP2;ratioP2;P2;SDS_P1;SDS_P2;PMS_P1;PMS_P2;Temp;Humidity;BMP_temperature;BMP_pressure;BME280_temperature;BME280_humidity;BME280_pressure;Samples;Min_cycle;Max_cycle;Signal;HPM_P1;HPM_P2
2023/06/25 04:01:47;;;;;;;5.80;4.57;;;16.60;97.30;;;;;;5391079;23;20558;-88
2023/06/25 04:04:36;;;;;;;5.83;4.70;;;16.70;97.30;;;;;;4939154;29;21017;-90
2023/06/25 04:06:58;;;;;;;5.50;3.87;;;16.70;97.30;;;;;;4920024;29;20208;-89
2023/06/25 04:09:26;;;;;;;5.53;3.40;;;16.70;97.30;;;;;;4921775;29;20518;-89
2023/06/25 04:11:56;;;;;;;7.23;5.63;;;16.70;97.30;;;;;;4921441;29;20215;-88
2023/06/25 04:14:22;;;;;;;10.60;4.27;;;16.70;97.30;;;;;;4971531;23;20489;-90
2023/06/25 04:16:48;;;;;;;6.53;4.30;;;16.70;97.30;;;;;;4958070;28;20940;-90
2023/06/25 04:19:13;;;;;;;5.83;4.07;;;16.70;97.30;;;;;;4953109;28;20195;-91
2023/06/25 04:21:39;;;;;;;5.83;5.00;;;16.70;97.30;;;;;;4963795;28;20357;-90
2023/06/25 04:24:04;;;;;;;5.80;4.00;;;16.80;97.30;;;;;;4957969;28;20594;-90
2023/06/25 04:26:30;;;;;;;11.80;6.40;;;16.80;97.30;;;;;;4959256;28;20191;-90
2023/06/25 04:28:56;;;;;;;4.83;2.87;;;16.80;97.30;;;;;;4952840;29;20202;-90
2023/06/25 04:31:23;;;;;;;6.07;4.20;;;16.80;97.30;;;;;;4959827;28;20629;-90
2023/06/25 04:33:49;;;;;;;5.37;4.20;;;16.90;97.30;;;;;;4969076;28;20219;-90
2023/06/25 04:36:15;;;;;;;6.40;4.03;;;17.00;97.30;;;;;;4956951;28;20477;-91
2023/06/25 04:38:40;;;;;;;5.87;4.10;;;17.00;97.30;;;;;;4960995;28;20435;-90
2023/06/25 04:41:06;;;;;;;6.77;3.93;;;17.00;97.30;;;;;;4959816;28;20237;-90
2023/06/25 04:43:31;;;;;;;5.90;3.97;;;17.10;97.30;;;;;;4964393;28;20230;-90
2023/06/25 04:45:57;;;;;;;4.90;3.40;;;17.20;97.30;;;;;;4972160;28;20269;-90
2023/06/25 04:48:22;;;;;;;4.17;3.73;;;17.20;97.30;;;;;;4962983;28;20660;-90
2023/06/25 04:50:48;;;;;;;4.07;3.83;;;17.30;97.30;;;;;;4964239;28;20232;-90
2023/06/25 04:53:13;;;;;;;7.40;5.13;;;17.30;97.30;;;;;;4964224;28;20202;-90
2023/06/25 04:55:39;;;;;;;4.30;3.27;;;17.40;97.30;;;;;;4954750;28;20179;-90
2023/06/25 04:58:04;;;;;;;6.83;4.03;;;17.40;97.30;;;;;;4957303;28;20179;-90
2023/06/25 05:00:30;;;;;;;3.30;2.90;;;17.50;97.30;;;;;;4952447;28;20183;-90
2023/06/25 05:02:55;;;;;;;5.07;2.90;;;17.50;97.30;;;;;;4957335;28;20207;-89
2023/06/25 05:05:21;;;;;;;5.23;3.30;;;17.60;97.30;;;;;;4956973;28;20183;-89
2023/06/25 05:07:47;;;;;;;5.00;2.97;;;17.70;97.30;;;;;;4963608;28;20558;-90
2023/06/25 05:10:14;;;;;;;14.30;3.97;;;17.70;97.30;;;;;;4956395;28;20207;-90
2023/06/25 05:12:40;;;;;;;4.40;3.33;;;17.80;97.30;;;;;;4962942;28;20434;-89
2023/06/25 05:15:06;;;;;;;4.03;3.67;;;17.80;97.30;;;;;;4964749;28;20528;-90
2023/06/25 05:17:32;;;;;;;5.37;4.50;;;17.90;97.30;;;;;;4964116;28;20263;-90
2023/06/25 05:19:57;;;;;;;6.20;4.83;;;17.90;97.30;;;;;;4966528;28;20882;-88
2023/06/25 05:22:23;;;;;;;6.50;3.10;;;18.00;97.30;;;;;;4967679;28;20187;-89
2023/06/25 05:24:48;;;;;;;6.67;4.23;;;18.00;97.30;;;;;;4955734;28;20202;-90
2023/06/25 05:27:14;;;;;;;4.20;2.77;;;18.10;97.30;;;;;;4955775;28;20179;-90
2023/06/25 05:29:39;;;;;;;9.43;3.07;;;18.10;97.30;;;;;;4951902;29;20633;-90
2023/06/25 05:32:05;;;;;;;8.17;4.00;;;18.10;97.30;;;;;;4965767;28;20186;-90
2023/06/25 05:34:30;;;;;;;5.37;3.60;;;18.20;97.30;;;;;;4954347;28;20205;-90
2023/06/25 05:36:56;;;;;;;3.57;2.73;;;18.20;97.30;;;;;;4964794;28;20557;-90
2023/06/25 05:39:28;;;;;;;6.47;4.77;;;18.30;97.30;;;;;;4962073;28;20229;-89
2023/06/25 05:41:54;;;;;;;6.63;4.63;;;18.40;97.30;;;;;;4964925;28;20235;-90
2023/06/25 05:44:20;;;;;;;8.80;4.57;;;18.40;97.30;;;;;;4959252;28;20580;-90
2023/06/25 05:46:45;;;;;;;8.67;4.53;;;18.50;97.30;;;;;;4959014;28;21091;-90
2023/06/25 05:49:11;;;;;;;8.43;3.93;;;18.50;97.30;;;;;;4959355;28;20183;-90
2023/06/25 05:51:36;;;;;;;4.23;3.90;;;18.50;97.30;;;;;;4961250;28;20179;-91
2023/06/25 05:54:02;;;;;;;4.53;3.77;;;18.60;97.30;;;;;;4966409;28;20861;-90
2023/06/25 05:56:27;;;;;;;5.83;3.50;;;18.60;97.30;;;;;;4951819;28;20207;-90
2023/06/25 05:58:53;;;;;;;3.70;2.97;;;18.70;97.30;;;;;;4962933;28;20199;-92
2023/06/25 06:01:20;;;;;;;5.67;3.00;;;18.70;97.30;;;;;;4959803;28;20179;-90
2023/06/25 06:03:46;;;;;;;4.97;3.93;;;18.80;97.30;;;;;;4959276;28;20207;-91
2023/06/25 06:06:12;;;;;;;3.73;2.80;;;18.90;97.30;;;;;;4956451;28;20414;-93
2023/06/25 06:08:38;;;;;;;12.33;4.40;;;19.00;97.30;;;;;;4961385;28;20554;-91
2023/06/25 06:11:03;;;;;;;6.50;4.50;;;19.10;97.30;;;;;;4964876;28;20529;-91
2023/06/25 06:13:29;;;;;;;3.63;2.80;;;19.10;97.30;;;;;;4959644;28;20249;-90
2023/06/25 06:15:55;;;;;;;4.93;2.57;;;19.20;97.30;;;;;;4965646;28;20175;-89
2023/06/25 06:18:20;;;;;;;4.50;3.13;;;19.30;97.30;;;;;;4959278;28;20301;-90
2023/06/25 06:20:46;;;;;;;4.37;2.90;;;19.40;97.30;;;;;;4962374;28;20345;-91
2023/06/25 06:23:11;;;;;;;6.00;3.07;;;19.40;97.30;;;;;;4964175;28;20286;-90
2023/06/25 06:25:37;;;;;;;5.80;4.17;;;19.50;97.30;;;;;;4951058;29;20270;-90
2023/06/25 06:28:03;;;;;;;3.70;2.70;;;19.60;97.30;;;;;;4950743;29;20238;-90
2023/06/25 06:30:28;;;;;;;5.07;3.20;;;19.60;97.30;;;;;;4967059;28;20202;-90
2023/06/25 06:32:54;;;;;;;4.30;2.87;;;19.70;97.30;;;;;;4952361;29;20203;-90
2023/06/25 06:35:20;;;;;;;8.60;2.73;;;19.80;97.30;;;;;;4962177;28;20193;-91
2023/06/25 06:37:45;;;;;;;4.93;2.70;;;19.80;97.30;;;;;;4950640;28;20534;-91
2023/06/25 06:40:11;;;;;;;3.37;3.17;;;19.90;97.30;;;;;;4951557;29;20425;-90
2023/06/25 06:42:37;;;;;;;4.03;3.20;;;20.00;97.30;;;;;;4951137;28;20538;-91
2023/06/25 06:45:03;;;;;;;3.83;3.27;;;20.00;97.30;;;;;;4956320;28;20197;-90
2023/06/25 06:47:28;;;;;;;6.20;3.40;;;20.10;97.30;;;;;;4969920;28;20186;-90
2023/06/25 06:49:54;;;;;;;7.37;3.97;;;20.20;97.30;;;;;;4958181;28;20455;-91
2023/06/25 06:52:24;;;;;;;3.63;3.10;;;20.20;97.30;;;;;;4950148;28;20179;-90
2023/06/25 06:54:50;;;;;;;4.80;2.90;;;20.30;97.30;;;;;;4960528;28;20191;-90
2023/06/25 06:57:16;;;;;;;5.17;3.67;;;20.40;97.30;;;;;;4954744;29;20960;-90
2023/06/25 06:59:41;;;;;;;7.17;3.57;;;20.50;97.30;;;;;;4960933;28;20273;-90
2023/06/25 07:02:07;;;;;;;2.80;1.83;;;20.50;97.30;;;;;;4960294;28;20555;-90
2023/06/25 07:04:32;;;;;;;5.27;2.33;;;20.60;97.30;;;;;;4964999;28;20207;-88
2023/06/25 07:06:58;;;;;;;4.03;3.77;;;20.70;97.30;;;;;;4954451;28;20282;-90
2023/06/25 07:09:25;;;;;;;6.37;3.73;;;20.70;97.30;;;;;;4954726;29;20206;-91
2023/06/25 07:11:51;;;;;;;5.60;2.50;;;20.80;97.30;;;;;;4967814;28;20252;-91
2023/06/25 07:14:16;;;;;;;6.07;3.33;;;20.90;97.30;;;;;;4966724;28;20545;-90
2023/06/25 07:16:42;;;;;;;7.97;3.20;;;21.00;97.30;;;;;;4962996;28;20186;-91
2023/06/25 07:19:08;;;;;;;3.30;2.40;;;21.10;97.30;;;;;;4968474;28;20193;-90
2023/06/25 07:21:33;;;;;;;9.10;3.47;;;21.20;97.30;;;;;;4965229;28;20594;-91
2023/06/25 07:23:59;;;;;;;3.40;2.43;;;21.40;97.30;;;;;;4957210;28;20446;-91
2023/06/25 07:26:25;;;;;;;4.13;3.90;;;21.50;97.30;;;;;;4973026;28;20175;-93
2023/06/25 07:28:51;;;;;;;4.00;2.57;;;21.70;97.30;;;;;;4975923;28;20277;-90
2023/06/25 07:31:16;;;;;;;4.50;3.60;;;21.80;97.30;;;;;;4976159;28;20501;-92
2023/06/25 07:33:42;;;;;;;5.00;3.03;;;21.90;97.30;;;;;;4982665;28;20197;-93
2023/06/25 07:36:07;;;;;;;3.20;3.00;;;22.00;97.30;;;;;;4981375;28;20213;-90
2023/06/25 07:38:33;;;;;;;2.27;2.10;;;22.10;97.20;;;;;;4976872;28;20218;-92
2023/06/25 07:40:58;;;;;;;3.70;2.80;;;22.20;97.30;;;;;;4983546;28;20191;-91
2023/06/25 07:43:23;;;;;;;3.60;2.73;;;22.30;97.30;;;;;;4989877;28;20202;-92
2023/06/25 07:45:49;;;;;;;4.73;3.17;;;22.40;97.30;;;;;;4994668;28;20669;-90
2023/06/25 07:48:14;;;;;;;2.80;2.27;;;22.50;96.90;;;;;;4978879;28;20229;-93
2023/06/25 07:50:40;;;;;;;5.37;2.37;;;22.60;96.50;;;;;;4968951;28;20700;-90
2023/06/25 07:53:05;;;;;;;2.60;2.40;;;22.70;96.00;;;;;;4973471;28;20206;-92
2023/06/25 07:55:38;;;;;;;2.60;2.37;;;22.80;95.50;;;;;;4956717;28;20564;-91
2023/06/25 07:58:04;;;;;;;2.93;2.50;;;22.90;95.30;;;;;;4966838;28;20653;-91
2023/06/25 08:00:30;;;;;;;7.30;2.60;;;23.00;95.30;;;;;;4972572;28;20426;-90
2023/06/25 08:02:55;;;;;;;3.80;2.47;;;23.10;94.60;;;;;;4968868;28;20465;-92
2023/06/25 08:05:20;;;;;;;3.80;2.83;;;23.20;94.50;;;;;;4952988;28;20176;-91
2023/06/25 08:07:46;;;;;;;3.10;2.37;;;23.30;94.40;;;;;;4954766;28;20661;-91
2023/06/25 08:10:11;;;;;;;3.27;2.07;;;23.40;93.90;;;;;;4967338;28;20218;-92
2023/06/25 08:12:37;;;;;;;6.93;2.83;;;23.50;93.20;;;;;;4962001;28;20178;-92
2023/06/25 08:15:04;;;;;;;2.93;2.50;;;23.60;93.00;;;;;;4968264;28;20262;-91
2023/06/25 08:17:29;;;;;;;4.07;3.10;;;23.60;93.10;;;;;;4961779;28;20202;-91
2023/06/25 08:19:55;;;;;;;4.37;2.67;;;23.70;92.70;;;;;;4972980;28;20771;-92
2023/06/25 08:22:20;;;;;;;7.67;3.60;;;23.80;92.20;;;;;;4966578;28;20187;-92
2023/06/25 08:24:46;;;;;;;2.80;2.30;;;23.80;91.50;;;;;;4953687;29;20262;-92
2023/06/25 08:27:11;;;;;;;2.40;2.20;;;23.90;90.70;;;;;;4961475;28;20183;-91
2023/06/25 08:29:36;;;;;;;3.77;2.80;;;23.90;89.70;;;;;;4954731;28;20591;-91
2023/06/25 08:32:02;;;;;;;1.87;1.77;;;23.90;87.50;;;;;;4960707;28;20222;-91
2023/06/25 08:34:28;;;;;;;3.17;2.37;;;23.90;89.20;;;;;;4953745;28;20235;-93
2023/06/25 08:36:54;;;;;;;4.60;2.27;;;23.90;88.90;;;;;;4955124;28;20210;-92
2023/06/25 08:39:19;;;;;;;3.63;1.97;;;24.00;88.20;;;;;;4953352;28;20186;-91
2023/06/25 08:41:45;;;;;;;2.43;2.23;;;24.10;88.70;;;;;;4956095;28;20568;-91
2023/06/25 08:44:10;;;;;;;5.10;3.20;;;24.20;89.40;;;;;;4967023;28;20214;-93
2023/06/25 08:46:37;;;;;;;2.23;2.03;;;24.20;89.30;;;;;;4969916;28;20735;-92
2023/06/25 08:49:05;;;;;;;4.03;2.03;;;24.30;89.40;;;;;;4960521;28;20207;-92
2023/06/25 08:51:31;;;;;;;2.60;2.27;;;24.50;89.50;;;;;;4969486;28;20434;-91
2023/06/25 08:53:57;;;;;;;3.50;2.30;;;24.50;89.10;;;;;;4957066;28;20990;-92
2023/06/25 08:56:22;;;;;;;2.37;1.87;;;24.60;88.50;;;;;;4964306;28;20492;-92
2023/06/25 08:58:48;;;;;;;3.10;3.00;;;24.60;87.50;;;;;;4954276;28;20933;-92
2023/06/25 09:01:13;;;;;;;2.20;1.60;;;24.70;87.90;;;;;;4954319;29;20732;-92
2023/06/25 09:03:41;;;;;;;2.50;2.30;;;24.70;87.50;;;;;;4961302;28;20727;-92
2023/06/25 09:06:13;;;;;;;3.30;2.60;;;24.70;87.90;;;;;;4953349;28;20191;-92
2023/06/25 09:08:39;;;;;;;2.37;2.17;;;24.70;88.30;;;;;;4961285;28;20502;-91
2023/06/25 09:11:06;;;;;;;2.50;2.20;;;24.70;88.50;;;;;;4967489;28;20469;-92
2023/06/25 09:13:31;;;;;;;2.17;2.00;;;24.80;88.80;;;;;;4956476;28;20467;-92
2023/06/25 09:16:02;;;;;;;7.03;3.10;;;25.00;88.90;;;;;;4962392;28;20427;-92
2023/06/25 09:18:32;;;;;;;1.77;1.67;;;25.10;87.90;;;;;;4960870;28;20190;-94
2023/06/25 09:21:06;;;;;;;2.53;2.03;;;25.30;86.30;;;;;;4961153;28;20435;-92
2023/06/25 09:23:32;;;;;;;3.57;3.00;;;25.30;86.30;;;;;;4967976;28;20438;-92
2023/06/25 09:26:02;;;;;;;1.67;1.67;;;25.40;85.70;;;;;;4959501;28;20807;-93
2023/06/25 09:28:29;;;;;;;2.80;2.67;;;25.50;86.20;;;;;;4961780;28;20189;-92
2023/06/25 09:30:57;;;;;;;1.70;1.50;;;25.50;86.20;;;;;;4953249;28;20471;-91
2023/06/25 09:33:33;;;;;;;2.77;2.20;;;25.60;85.60;;;;;;4961371;28;20254;-92
2023/06/25 09:36:00;;;;;;;2.83;2.60;;;25.60;85.90;;;;;;4946256;29;20517;-93
2023/06/25 09:38:25;;;;;;;2.73;2.10;;;25.70;85.70;;;;;;4969207;28;20428;-93
2023/06/25 09:40:51;;;;;;;7.57;3.40;;;25.70;85.20;;;;;;4965248;28;20421;-92
2023/06/25 09:43:17;;;;;;;4.03;2.70;;;25.70;84.60;;;;;;4959836;28;20242;-92
2023/06/25 09:45:44;;;;;;;2.07;1.93;;;25.80;85.00;;;;;;4961841;28;20443;-93
2023/06/25 09:48:12;;;;;;;1.77;1.67;;;25.90;85.10;;;;;;4954517;29;20186;-93
2023/06/25 09:50:44;;;;;;;3.13;2.43;;;26.00;85.60;;;;;;4954596;28;20467;-93
2023/06/25 09:53:30;;;;;;;2.30;1.77;;;26.10;85.80;;;;;;4955744;28;20443;-92
2023/06/25 09:56:09;;;;;;;2.90;2.00;;;26.20;85.40;;;;;;4965911;28;20513;-92
2023/06/25 09:58:37;;;;;;;4.00;2.03;;;26.30;85.20;;;;;;4967405;28;20432;-94
2023/06/25 10:01:03;;;;;;;2.27;2.00;;;26.40;85.30;;;;;;4974929;28;20430;-94
2023/06/25 10:03:29;;;;;;;2.90;2.33;;;26.50;85.00;;;;;;4958984;28;20450;-92
2023/06/25 10:05:57;;;;;;;2.10;1.50;;;26.60;85.00;;;;;;4966875;28;20210;-92
2023/06/25 10:08:32;;;;;;;5.00;3.23;;;26.70;84.40;;;;;;4975388;28;20418;-93
2023/06/25 10:13:51;;;;;;;3.47;2.10;;;26.90;84.50;;;;;;4896212;23;20484;-69
2023/06/25 10:16:19;;;;;;;2.47;2.10;;;27.00;83.20;;;;;;4911000;29;20956;-69
2023/06/25 10:18:46;;;;;;;7.60;3.60;;;27.10;83.90;;;;;;4912595;29;20448;-69
2023/06/25 10:21:20;;;;;;;6.63;2.10;;;27.30;84.30;;;;;;4894560;29;20840;-69
2023/06/25 10:23:55;;;;;;;2.43;2.23;;;27.40;83.50;;;;;;4893775;29;20425;-68
2023/06/25 10:26:26;;;;;;;3.30;2.43;;;27.50;83.00;;;;;;4886042;29;20435;-68
2023/06/25 10:28:52;;;;;;;4.53;2.70;;;27.50;82.70;;;;;;4898736;29;20444;-68
2023/06/25 10:31:18;;;;;;;2.33;2.13;;;27.50;81.60;;;;;;4880895;29;20486;-68
2023/06/25 10:33:43;;;;;;;1.97;1.87;;;27.50;83.00;;;;;;4899338;29;20177;-68
2023/06/25 10:36:10;;;;;;;3.53;2.20;;;27.50;82.70;;;;;;4886700;29;20434;-68
2023/06/25 10:38:36;;;;;;;4.20;2.50;;;27.50;83.10;;;;;;4896128;29;20794;-68
2023/06/25 10:41:01;;;;;;;3.50;2.50;;;27.40;82.80;;;;;;4883192;29;20532;-68
2023/06/25 10:43:27;;;;;;;2.33;2.03;;;27.30;82.80;;;;;;4885370;29;20529;-69
2023/06/25 10:45:54;;;;;;;1.83;1.63;;;27.20;83.20;;;;;;4893425;29;20192;-68
2023/06/25 10:48:20;;;;;;;1.77;1.67;;;27.10;83.50;;;;;;4887597;29;20215;-69
2023/06/25 10:50:47;;;;;;;2.70;2.00;;;27.10;83.50;;;;;;4888860;29;21018;-69
2023/06/25 10:53:15;;;;;;;3.60;2.33;;;26.90;83.70;;;;;;4886456;29;20441;-68
2023/06/25 10:55:49;;;;;;;3.00;2.80;;;26.80;83.80;;;;;;4885160;29;20957;-69
2023/06/25 10:58:17;;;;;;;4.90;3.53;;;26.70;83.80;;;;;;4893697;29;20456;-68
2023/06/25 11:00:43;;;;;;;7.90;2.73;;;26.70;84.00;;;;;;4893026;29;20497;-69
2023/06/25 11:03:09;;;;;;;2.93;2.73;;;26.60;83.70;;;;;;4897722;29;20424;-68
2023/06/25 11:05:39;;;;;;;3.60;2.60;;;26.50;83.60;;;;;;4895397;29;20447;-69
2023/06/25 11:08:07;;;;;;;2.07;1.83;;;26.40;84.20;;;;;;4884848;29;20204;-69
2023/06/25 11:10:34;;;;;;;4.83;2.57;;;26.40;84.50;;;;;;4892931;29;20465;-69
2023/06/25 11:13:00;;;;;;;4.00;2.80;;;26.40;85.00;;;;;;4896601;29;20435;-69
2023/06/25 11:15:30;;;;;;;3.70;2.70;;;26.40;85.80;;;;;;4888868;29;20544;-69
2023/06/25 11:17:56;;;;;;;6.33;2.83;;;26.30;85.90;;;;;;4891853;29;20666;-69
2023/06/25 11:20:22;;;;;;;2.43;2.23;;;26.30;85.50;;;;;;4885435;29;20436;-69
2023/06/25 11:22:48;;;;;;;3.00;2.80;;;26.30;85.60;;;;;;4874827;29;20185;-69
2023/06/25 11:25:15;;;;;;;1.70;1.60;;;26.30;85.30;;;;;;4891899;29;20959;-69
2023/06/25 11:27:41;;;;;;;1.93;1.83;;;26.30;84.90;;;;;;4902340;29;20436;-69
2023/06/25 11:30:10;;;;;;;4.40;3.40;;;26.20;86.10;;;;;;4880256;29;21025;-69
2023/06/25 11:32:38;;;;;;;3.87;2.67;;;26.20;86.00;;;;;;4890270;29;20791;-69
2023/06/25 11:35:13;;;;;;;4.47;3.30;;;26.20;85.50;;;;;;4883246;29;20942;-69
2023/06/25 11:37:47;;;;;;;2.50;2.03;;;26.20;85.90;;;;;;4888847;29;20429;-70
2023/06/25 11:40:28;;;;;;;2.37;2.17;;;26.20;86.20;;;;;;4892968;29;20421;-69
2023/06/25 11:42:54;;;;;;;2.50;1.60;;;26.20;86.30;;;;;;4904219;29;20458;-69
2023/06/25 11:45:20;;;;;;;4.53;2.93;;;26.20;86.40;;;;;;4901902;29;20413;-69
2023/06/25 11:47:53;;;;;;;5.50;2.70;;;26.20;86.40;;;;;;4915139;29;20457;-69
2023/06/25 11:50:24;;;;;;;5.10;2.50;;;26.20;86.30;;;;;;4896428;29;20462;-68
2023/06/25 11:52:53;;;;;;;4.47;2.73;;;26.30;85.90;;;;;;4886908;29;20425;-69
2023/06/25 11:55:21;;;;;;;3.83;2.30;;;26.40;86.80;;;;;;4887209;29;20954;-69
2023/06/25 11:57:47;;;;;;;2.77;2.43;;;26.70;87.50;;;;;;4886037;29;20433;-69
2023/06/25 12:00:13;;;;;;;2.70;2.50;;;26.90;86.00;;;;;;4888465;29;20504;-68
2023/06/25 12:02:39;;;;;;;8.83;4.70;;;27.10;85.00;;;;;;4893755;29;20935;-69
2023/06/25 12:05:05;;;;;;;2.67;2.10;;;27.20;84.30;;;;;;4897958;29;20423;-69
2023/06/25 12:07:30;;;;;;;3.50;1.90;;;27.30;83.20;;;;;;4899031;29;20654;-68
2023/06/25 12:09:56;;;;;;;3.13;1.97;;;27.20;82.80;;;;;;4888489;29;20461;-68
2023/06/25 12:12:21;;;;;;;1.93;1.90;;;27.20;83.30;;;;;;4893903;29;20197;-68
2023/06/25 12:14:47;;;;;;;3.23;2.50;;;27.20;84.10;;;;;;4896949;29;20689;-68
2023/06/25 12:17:14;;;;;;;3.23;2.20;;;27.30;84.30;;;;;;4900134;29;20672;-69
2023/06/25 12:19:40;;;;;;;5.07;3.30;;;27.50;82.00;;;;;;4898717;29;20485;-69
2023/06/25 12:22:05;;;;;;;1.47;1.37;;;27.60;81.60;;;;;;4888214;29;20450;-68
2023/06/25 12:24:31;;;;;;;2.70;1.80;;;27.80;81.90;;;;;;4895758;29;20603;-68
2023/06/25 12:26:56;;;;;;;2.53;2.33;;;28.00;80.40;;;;;;4903138;29;20276;-68
2023/06/25 12:29:22;;;;;;;3.33;2.57;;;28.10;81.50;;;;;;4888005;29;20186;-68
2023/06/25 12:31:47;;;;;;;3.27;2.33;;;28.30;81.50;;;;;;4902838;29;20205;-68
2023/06/25 12:34:13;;;;;;;3.90;2.33;;;28.40;81.50;;;;;;4887685;29;20245;-67
2023/06/25 12:36:38;;;;;;;5.70;2.80;;;28.50;79.80;;;;;;4895322;29;20181;-68
2023/06/25 12:39:05;;;;;;;5.53;2.57;;;28.60;79.50;;;;;;4894255;29;20241;-67
2023/06/25 12:41:30;;;;;;;3.20;2.33;;;28.60;78.70;;;;;;4893880;29;20247;-67
2023/06/25 12:43:56;;;;;;;4.03;2.97;;;28.70;79.30;;;;;;4895310;29;20933;-68
2023/06/25 12:46:21;;;;;;;1.70;1.37;;;28.80;78.40;;;;;;4893983;29;20215;-68
2023/06/25 12:48:47;;;;;;;4.27;2.37;;;28.90;78.40;;;;;;4894227;29;20188;-67
2023/06/25 12:51:13;;;;;;;2.97;2.77;;;29.00;77.40;;;;;;4895335;29;20689;-68
2023/06/25 12:53:38;;;;;;;3.10;1.77;;;29.10;77.50;;;;;;4886856;29;20616;-67
2023/06/25 12:56:04;;;;;;;2.70;2.50;;;29.20;78.10;;;;;;4898154;29;20188;-68
2023/06/25 12:58:30;;;;;;;2.23;1.73;;;29.40;77.30;;;;;;4893174;29;20669;-67
2023/06/25 13:00:55;;;;;;;2.80;1.80;;;29.50;76.50;;;;;;4885703;29;20232;-67
2023/06/25 13:03:21;;;;;;;2.50;2.30;;;29.60;77.10;;;;;;4895053;29;20184;-67
2023/06/25 13:05:46;;;;;;;2.20;2.00;;;29.80;77.20;;;;;;4878713;29;20201;-68
2023/06/25 13:08:15;;;;;;;2.47;1.63;;;29.80;75.40;;;;;;4888133;29;20192;-68
2023/06/25 13:10:41;;;;;;;2.20;2.00;;;29.80;75.30;;;;;;4895359;29;20220;-67
2023/06/25 13:13:07;;;;;;;4.97;2.57;;;29.70;75.80;;;;;;4890653;29;20427;-67
2023/06/25 13:15:33;;;;;;;2.87;2.33;;;29.80;77.00;;;;;;4895760;29;20307;-67
2023/06/25 13:17:59;;;;;;;3.70;2.37;;;29.90;76.40;;;;;;4893099;29;20588;-68
2023/06/25 13:20:24;;;;;;;2.43;1.80;;;29.90;75.80;;;;;;4881233;29;20217;-67
2023/06/25 13:22:50;;;;;;;3.63;3.23;;;29.80;76.20;;;;;;4891031;29;20272;-67
2023/06/25 13:25:15;;;;;;;6.10;2.30;;;29.80;76.10;;;;;;4893352;29;20185;-67
2023/06/25 13:27:41;;;;;;;3.10;2.80;;;29.80;76.50;;;;;;4877937;29;20186;-67
2023/06/25 13:30:07;;;;;;;3.53;2.67;;;29.70;76.40;;;;;;4900800;29;20213;-67
2023/06/25 13:32:33;;;;;;;7.23;2.90;;;29.50;76.00;;;;;;4893340;29;20641;-67
2023/06/25 13:35:00;;;;;;;4.80;1.93;;;29.30;76.10;;;;;;4895754;29;20436;-67
2023/06/25 13:37:26;;;;;;;2.10;1.90;;;29.20;76.70;;;;;;4898801;29;20937;-67
2023/06/25 13:39:51;;;;;;;4.90;2.63;;;29.10;76.20;;;;;;4902062;29;20472;-67
2023/06/25 13:42:17;;;;;;;4.60;2.50;;;29.00;76.80;;;;;;4886354;29;20713;-67
2023/06/25 13:44:42;;;;;;;2.63;2.40;;;28.90;76.50;;;;;;4885459;29;20588;-66
2023/06/25 13:47:08;;;;;;;3.23;2.10;;;28.90;76.40;;;;;;4886529;29;20675;-67
2023/06/25 13:49:34;;;;;;;2.60;1.90;;;28.70;77.90;;;;;;4886766;29;20299;-67
2023/06/25 13:52:00;;;;;;;6.10;2.37;;;28.70;78.20;;;;;;4908355;29;20204;-67
2023/06/25 13:54:25;;;;;;;1.83;1.67;;;28.60;78.50;;;;;;4888717;29;20423;-67
2023/06/25 13:56:52;;;;;;;2.93;2.10;;;28.60;78.80;;;;;;4891631;29;20677;-68
2023/06/25 13:59:18;;;;;;;3.90;2.30;;;28.50;79.20;;;;;;4888390;29;20182;-68
2023/06/25 14:01:44;;;;;;;2.57;2.37;;;28.40;79.50;;;;;;4881582;29;20454;-67
2023/06/25 14:04:09;;;;;;;2.57;2.37;;;28.30;80.00;;;;;;4881890;29;20510;-68
2023/06/25 14:06:35;;;;;;;1.87;1.57;;;28.20;80.90;;;;;;4889880;29;20192;-68
2023/06/25 14:09:00;;;;;;;3.47;1.93;;;28.20;80.90;;;;;;4885870;29;20248;-68
2023/06/25 14:11:26;;;;;;;3.70;3.10;;;28.10;81.20;;;;;;4892532;29;20748;-68
2023/06/25 14:13:52;;;;;;;3.43;2.80;;;28.10;81.30;;;;;;4885399;29;20650;-68
2023/06/25 14:16:18;;;;;;;2.63;2.07;;;28.10;81.30;;;;;;4905071;29;20195;-68
2023/06/25 14:18:44;;;;;;;1.80;1.63;;;28.00;81.90;;;;;;4889129;29;20418;-68
2023/06/25 14:21:09;;;;;;;2.03;1.70;;;28.00;82.70;;;;;;4873981;29;20288;-68
2023/06/25 14:23:35;;;;;;;2.67;2.17;;;28.10;83.00;;;;;;4880568;29;20264;-68
2023/06/25 14:26:02;;;;;;;3.90;2.20;;;28.20;82.90;;;;;;4891257;29;20296;-68
2023/06/25 14:28:27;;;;;;;3.57;2.30;;;28.20;82.30;;;;;;4888179;29;20685;-68
2023/06/25 14:30:53;;;;;;;2.30;1.90;;;28.20;82.70;;;;;;4891934;29;20658;-68
2023/06/25 14:33:18;;;;;;;2.60;2.40;;;28.30;82.90;;;;;;4895794;29;20174;-68
2023/06/25 14:35:44;;;;;;;6.20;3.73;;;28.30;82.50;;;;;;4890289;29;20207;-68
2023/06/25 14:38:09;;;;;;;3.27;2.33;;;28.40;82.40;;;;;;4899889;29;20185;-68
2023/06/25 14:40:35;;;;;;;2.30;1.93;;;28.40;82.40;;;;;;4896599;29;20204;-68
2023/06/25 14:43:00;;;;;;;2.77;2.60;;;28.40;81.60;;;;;;4888562;29;20181;-68
2023/06/25 14:45:26;;;;;;;5.60;1.30;;;28.30;81.50;;;;;;4886613;29;20193;-68
2023/06/25 14:47:51;;;;;;;2.10;1.77;;;28.30;81.60;;;;;;4889464;29;20555;-67
2023/06/25 14:50:17;;;;;;;2.80;2.00;;;28.40;81.70;;;;;;4901293;29;20204;-67
2023/06/25 14:52:43;;;;;;;5.57;2.63;;;28.60;81.60;;;;;;4885373;29;20200;-67
2023/06/25 14:55:09;;;;;;;2.47;2.00;;;28.80;80.80;;;;;;4876664;29;20178;-68
2023/06/25 14:57:34;;;;;;;2.57;2.40;;;29.10;80.70;;;;;;4891839;29;20433;-68
2023/06/25 15:00:00;;;;;;;2.23;2.03;;;29.30;80.60;;;;;;4893705;29;20189;-68
2023/06/25 15:02:26;;;;;;;2.30;2.10;;;29.60;80.20;;;;;;4893155;29;20208;-67
2023/06/25 15:04:51;;;;;;;4.30;1.60;;;29.80;78.90;;;;;;4908361;29;20913;-68
2023/06/25 15:07:17;;;;;;;4.73;2.33;;;29.90;78.50;;;;;;4894277;29;20207;-67
2023/06/25 15:09:43;;;;;;;2.33;1.87;;;30.10;78.50;;;;;;4894251;29;20213;-68
2023/06/25 15:12:08;;;;;;;4.00;2.23;;;30.30;77.90;;;;;;4892723;29;20688;-67
2023/06/25 15:14:34;;;;;;;3.37;2.10;;;30.30;76.80;;;;;;4891871;29;20229;-67
2023/06/25 15:17:00;;;;;;;6.53;2.03;;;30.40;77.00;;;;;;4897646;29;20185;-67
2023/06/25 15:19:26;;;;;;;21.83;2.30;;;30.50;76.80;;;;;;4901666;29;20216;-67
2023/06/25 15:21:51;;;;;;;3.23;3.10;;;30.50;76.50;;;;;;4895626;29;20993;-68
2023/06/25 15:24:17;;;;;;;2.03;1.90;;;30.50;75.50;;;;;;4891754;29;20666;-68
2023/06/25 15:26:42;;;;;;;1.77;1.70;;;30.50;75.50;;;;;;4900229;29;20184;-68
2023/06/25 15:29:08;;;;;;;2.93;2.67;;;30.50;75.20;;;;;;4913011;29;20184;-67
2023/06/25 15:31:33;;;;;;;3.00;1.90;;;30.50;74.80;;;;;;4891080;29;20220;-68
2023/06/25 15:33:59;;;;;;;2.13;1.80;;;30.60;75.70;;;;;;4893485;29;20595;-68
2023/06/25 15:36:25;;;;;;;2.47;1.97;;;30.70;75.70;;;;;;4889108;29;20678;-67
2023/06/25 15:38:50;;;;;;;2.53;2.27;;;30.80;74.60;;;;;;4896870;29;20237;-67
2023/06/25 15:41:16;;;;;;;3.90;2.47;;;31.00;75.60;;;;;;4895273;29;20736;-67
2023/06/25 15:43:41;;;;;;;2.30;1.90;;;31.10;75.60;;;;;;4895318;29;20185;-68
2023/06/25 15:46:07;;;;;;;4.67;2.60;;;31.20;75.50;;;;;;4894210;29;20196;-67
2023/06/25 15:48:33;;;;;;;3.77;2.80;;;31.30;75.50;;;;;;4890923;29;20670;-67
2023/06/25 15:50:59;;;;;;;2.40;2.23;;;31.30;75.30;;;;;;4893552;29;20248;-68
2023/06/25 15:53:24;;;;;;;1.80;1.50;;;31.30;75.20;;;;;;4897592;29;20453;-67
2023/06/25 15:55:50;;;;;;;2.70;1.97;;;31.40;73.90;;;;;;4896108;29;20177;-67
2023/06/25 15:58:15;;;;;;;3.60;2.10;;;31.40;74.00;;;;;;4906021;29;20189;-67
2023/06/25 16:00:41;;;;;;;3.40;1.87;;;31.50;73.50;;;;;;4891196;29;20292;-67
2023/06/25 16:03:07;;;;;;;3.23;2.27;;;31.60;73.40;;;;;;4895911;29;20185;-68
2023/06/25 16:05:33;;;;;;;1.60;1.50;;;31.70;73.50;;;;;;4882905;29;20441;-67
2023/06/25 16:07:59;;;;;;;1.57;1.23;;;31.70;74.00;;;;;;4884623;29;20185;-67
2023/06/25 16:10:24;;;;;;;1.77;1.67;;;31.70;73.80;;;;;;4893652;29;20549;-67
2023/06/25 16:12:50;;;;;;;2.83;2.40;;;31.60;73.40;;;;;;4886775;29;20603;-67
2023/06/25 16:15:15;;;;;;;3.47;2.70;;;31.60;73.30;;;;;;4942140;23;20267;-66
2023/06/25 16:17:41;;;;;;;2.10;1.77;;;31.60;73.60;;;;;;4933795;29;20195;-66
2023/06/25 16:20:07;;;;;;;5.77;4.10;;;31.60;73.20;;;;;;4933234;29;20184;-66
2023/06/25 16:22:33;;;;;;;4.10;2.60;;;31.60;73.30;;;;;;4919949;29;20191;-66
2023/06/25 16:24:58;;;;;;;1.33;1.33;;;31.60;73.50;;;;;;4915130;29;20425;-66
2023/06/25 16:27:24;;;;;;;1.37;1.30;;;31.70;73.20;;;;;;4924391;29;20247;-66
2023/06/25 16:29:50;;;;;;;4.60;2.70;;;31.70;72.90;;;;;;4933551;29;20660;-66
2023/06/25 16:32:16;;;;;;;3.00;2.00;;;31.60;73.00;;;;;;4932148;29;20446;-66
2023/06/25 16:34:41;;;;;;;3.90;2.17;;;31.60;72.90;;;;;;4924416;29;20184;-66
2023/06/25 16:37:07;;;;;;;5.20;2.57;;;31.60;73.10;;;;;;4930427;29;20180;-66
2023/06/25 16:39:32;;;;;;;4.37;2.33;;;31.60;73.50;;;;;;4933226;29;20182;-66
2023/06/25 16:41:58;;;;;;;2.00;1.90;;;31.60;73.50;;;;;;4924000;29;20579;-66
2023/06/25 16:44:23;;;;;;;2.40;2.00;;;31.60;73.70;;;;;;4927556;29;20184;-67